sensor_id;sensor_type;location;lat;lon;timestamp;P1;durP1;ratioP1;P2;durP2;ratioP2
27265;SDS011;14766;51.380;13.762;2023-07-24T00:01:26;5.47;;;2.30;;
27265;SDS011;14766;51.380;13.762;2023-07-24T00:03:54;3.60;;;2.70;;
27265;SDS011;14766;51.380;13.762;2023-07-24T00:06:22;2.85;;;2.17;;
27265;SDS011;14766;51.380;13.762;2023-07-24T00:08:49;3.28;;;2.35;;
27265;SDS011;14766;51.380;13.762;2023-07-24T00:11:18;3.03;;;2.58;;
27265;SDS011;14766;51.380;13.762;2023-07-24T00:13:45;2.58;;;2.30;;
27265;SDS011;14766;51.380;13.762;2023-07-24T00:16:12;3.42;;;2.88;;
27265;SDS011;14766;51.380;13.762;2023-07-24T00:18:39;3.88;;;2.38;;
27265;SDS011;14766;51.380;13.762;2023-07-24T00:21:07;3.40;;;2.33;;
27265;SDS011;14766;51.380;13.762;2023-07-24T00:23:34;2.45;;;2.22;;
27265;SDS011;14766;51.380;13.762;2023-07-24T00:26:01;2.85;;;2.10;;
27265;SDS011;14766;51.380;13.762;2023-07-24T00:28:28;2.70;;;2.10;;
27265;SDS011;14766;51.380;13.762;2023-07-24T00:30:55;3.63;;;2.28;;
27265;SDS011;14766;51.380;13.762;2023-07-24T00:33:22;3.42;;;2.70;;
27265;SDS011;14766;51.380;13.762;2023-07-24T00:35:54;2.75;;;2.40;;
27265;SDS011;14766;51.380;13.762;2023-07-24T00:38:25;3.22;;;2.33;;
27265;SDS011;14766;51.380;13.762;2023-07-24T00:40:52;4.10;;;2.42;;
27265;SDS011;14766;51.380;13.762;2023-07-24T00:43:19;4.32;;;2.45;;
27265;SDS011;14766;51.380;13.762;2023-07-24T00:45:46;3.05;;;2.20;;
27265;SDS011;14766;51.380;13.762;2023-07-24T00:48:14;3.10;;;2.70;;
27265;SDS011;14766;51.380;13.762;2023-07-24T00:50:42;4.22;;;2.70;;
27265;SDS011;14766;51.380;13.762;2023-07-24T00:53:11;2.90;;;2.30;;
27265;SDS011;14766;51.380;13.762;2023-07-24T00:55:39;4.05;;;2.80;;
27265;SDS011;14766;51.380;13.762;2023-07-24T00:58:06;2.83;;;2.28;;
27265;SDS011;14766;51.380;13.762;2023-07-24T01:00:34;3.13;;;2.50;;
27265;SDS011;14766;51.380;13.762;2023-07-24T01:03:01;2.70;;;2.22;;
27265;SDS011;14766;51.380;13.762;2023-07-24T01:05:29;2.80;;;2.50;;
27265;SDS011;14766;51.380;13.762;2023-07-24T01:07:56;3.72;;;2.35;;
27265;SDS011;14766;51.380;13.762;2023-07-24T01:10:23;2.63;;;2.42;;
27265;SDS011;14766;51.380;13.762;2023-07-24T01:12:55;2.42;;;2.22;;
27265;SDS011;14766;51.380;13.762;2023-07-24T01:15:32;3.95;;;2.30;;
27265;SDS011;14766;51.380;13.762;2023-07-24T01:18:06;3.55;;;2.60;;
27265;SDS011;14766;51.380;13.762;2023-07-24T01:20:41;4.22;;;2.40;;
27265;SDS011;14766;51.380;13.762;2023-07-24T01:25:56;2.80;;;2.35;;
27265;SDS011;14766;51.380;13.762;2023-07-24T01:28:25;4.30;;;3.03;;
27265;SDS011;14766;51.380;13.762;2023-07-24T01:30:54;3.33;;;2.75;;
27265;SDS011;14766;51.380;13.762;2023-07-24T01:33:22;3.10;;;2.50;;
27265;SDS011;14766;51.380;13.762;2023-07-24T01:35:53;3.20;;;2.58;;
27265;SDS011;14766;51.380;13.762;2023-07-24T01:38:23;4.53;;;2.92;;
27265;SDS011;14766;51.380;13.762;2023-07-24T01:40:54;3.47;;;2.55;;
27265;SDS011;14766;51.380;13.762;2023-07-24T01:43:24;4.95;;;2.53;;
27265;SDS011;14766;51.380;13.762;2023-07-24T01:45:54;3.88;;;2.45;;
27265;SDS011;14766;51.380;13.762;2023-07-24T01:48:21;3.25;;;2.45;;
27265;SDS011;14766;51.380;13.762;2023-07-24T01:50:48;3.03;;;2.58;;
27265;SDS011;14766;51.380;13.762;2023-07-24T01:53:16;3.42;;;3.00;;
27265;SDS011;14766;51.380;13.762;2023-07-24T01:55:43;3.20;;;2.70;;
27265;SDS011;14766;51.380;13.762;2023-07-24T01:58:12;4.35;;;2.75;;
27265;SDS011;14766;51.380;13.762;2023-07-24T02:00:39;3.80;;;2.42;;
27265;SDS011;14766;51.380;13.762;2023-07-24T02:03:06;2.97;;;2.42;;
27265;SDS011;14766;51.380;13.762;2023-07-24T02:05:34;3.35;;;2.75;;
27265;SDS011;14766;51.380;13.762;2023-07-24T02:08:03;2.97;;;2.25;;
27265;SDS011;14766;51.380;13.762;2023-07-24T02:10:30;3.10;;;2.80;;
27265;SDS011;14766;51.380;13.762;2023-07-24T02:12:57;3.33;;;2.60;;
27265;SDS011;14766;51.380;13.762;2023-07-24T02:15:24;3.42;;;2.50;;
27265;SDS011;14766;51.380;13.762;2023-07-24T02:17:51;4.00;;;2.72;;
27265;SDS011;14766;51.380;13.762;2023-07-24T02:20:18;4.45;;;2.80;;
27265;SDS011;14766;51.380;13.762;2023-07-24T02:22:46;3.92;;;3.10;;
27265;SDS011;14766;51.380;13.762;2023-07-24T02:25:13;3.67;;;2.70;;
27265;SDS011;14766;51.380;13.762;2023-07-24T02:27:40;3.03;;;2.47;;
27265;SDS011;14766;51.380;13.762;2023-07-24T02:30:07;3.10;;;2.58;;
27265;SDS011;14766;51.380;13.762;2023-07-24T02:32:34;3.28;;;2.60;;
27265;SDS011;14766;51.380;13.762;2023-07-24T02:35:03;3.05;;;2.70;;
27265;SDS011;14766;51.380;13.762;2023-07-24T02:37:30;3.17;;;2.42;;
27265;SDS011;14766;51.380;13.762;2023-07-24T02:39:57;2.67;;;2.35;;
27265;SDS011;14766;51.380;13.762;2023-07-24T02:42:26;3.58;;;2.65;;
27265;SDS011;14766;51.380;13.762;2023-07-24T02:44:53;4.57;;;2.63;;
27265;SDS011;14766;51.380;13.762;2023-07-24T02:47:20;2.75;;;2.38;;
27265;SDS011;14766;51.380;13.762;2023-07-24T02:49:48;3.05;;;2.60;;
27265;SDS011;14766;51.380;13.762;2023-07-24T02:52:15;3.78;;;2.90;;
27265;SDS011;14766;51.380;13.762;2023-07-24T02:54:42;3.42;;;2.70;;
27265;SDS011;14766;51.380;13.762;2023-07-24T02:57:09;3.33;;;2.70;;
27265;SDS011;14766;51.380;13.762;2023-07-24T02:59:36;4.20;;;3.10;;
27265;SDS011;14766;51.380;13.762;2023-07-24T03:02:03;3.50;;;2.90;;
27265;SDS011;14766;51.380;13.762;2023-07-24T03:04:31;5.22;;;2.88;;
27265;SDS011;14766;51.380;13.762;2023-07-24T03:06:58;3.97;;;2.80;;
27265;SDS011;14766;51.380;13.762;2023-07-24T03:09:25;3.88;;;3.00;;
27265;SDS011;14766;51.380;13.762;2023-07-24T03:11:54;2.92;;;2.63;;
27265;SDS011;14766;51.380;13.762;2023-07-24T03:14:23;3.35;;;2.58;;
27265;SDS011;14766;51.380;13.762;2023-07-24T03:16:50;3.75;;;3.05;;
27265;SDS011;14766;51.380;13.762;2023-07-24T03:19:17;3.72;;;3.10;;
27265;SDS011;14766;51.380;13.762;2023-07-24T03:21:46;4.13;;;3.00;;
27265;SDS011;14766;51.380;13.762;2023-07-24T03:24:13;3.88;;;2.60;;
27265;SDS011;14766;51.380;13.762;2023-07-24T03:26:41;6.25;;;3.05;;
27265;SDS011;14766;51.380;13.762;2023-07-24T03:29:08;5.15;;;2.97;;
27265;SDS011;14766;51.380;13.762;2023-07-24T03:31:35;3.28;;;2.78;;
27265;SDS011;14766;51.380;13.762;2023-07-24T03:34:03;6.10;;;2.83;;
27265;SDS011;14766;51.380;13.762;2023-07-24T03:36:30;4.43;;;2.75;;
27265;SDS011;14766;51.380;13.762;2023-07-24T03:38:57;3.53;;;2.92;;
27265;SDS011;14766;51.380;13.762;2023-07-24T03:41:24;4.60;;;2.78;;
27265;SDS011;14766;51.380;13.762;2023-07-24T03:43:53;3.33;;;2.83;;
27265;SDS011;14766;51.380;13.762;2023-07-24T03:46:20;3.95;;;2.88;;
27265;SDS011;14766;51.380;13.762;2023-07-24T03:48:47;3.60;;;2.72;;
27265;SDS011;14766;51.380;13.762;2023-07-24T03:51:16;3.58;;;3.00;;
27265;SDS011;14766;51.380;13.762;2023-07-24T03:53:43;3.67;;;2.60;;
27265;SDS011;14766;51.380;13.762;2023-07-24T03:56:10;3.53;;;3.00;;
27265;SDS011;14766;51.380;13.762;2023-07-24T03:58:37;4.68;;;3.38;;
27265;SDS011;14766;51.380;13.762;2023-07-24T04:01:06;3.67;;;2.67;;
27265;SDS011;14766;51.380;13.762;2023-07-24T04:03:34;3.45;;;2.58;;
27265;SDS011;14766;51.380;13.762;2023-07-24T04:06:01;3.83;;;2.85;;
27265;SDS011;14766;51.380;13.762;2023-07-24T04:08:28;3.80;;;2.80;;
27265;SDS011;14766;51.380;13.762;2023-07-24T04:10:55;3.17;;;2.80;;
27265;SDS011;14766;51.380;13.762;2023-07-24T04:13:22;3.20;;;2.47;;
27265;SDS011;14766;51.380;13.762;2023-07-24T04:15:49;2.90;;;2.60;;
27265;SDS011;14766;51.380;13.762;2023-07-24T04:18:16;4.28;;;2.72;;
27265;SDS011;14766;51.380;13.762;2023-07-24T04:20:43;4.43;;;2.85;;
27265;SDS011;14766;51.380;13.762;2023-07-24T04:23:10;3.47;;;2.78;;
27265;SDS011;14766;51.380;13.762;2023-07-24T04:25:37;4.07;;;3.10;;
27265;SDS011;14766;51.380;13.762;2023-07-24T04:28:04;4.38;;;2.88;;
27265;SDS011;14766;51.380;13.762;2023-07-24T04:30:32;4.63;;;2.53;;
27265;SDS011;14766;51.380;13.762;2023-07-24T04:32:59;3.50;;;2.70;;
27265;SDS011;14766;51.380;13.762;2023-07-24T04:35:26;3.53;;;2.85;;
27265;SDS011;14766;51.380;13.762;2023-07-24T04:37:55;4.93;;;3.22;;
27265;SDS011;14766;51.380;13.762;2023-07-24T04:40:23;3.72;;;2.80;;
27265;SDS011;14766;51.380;13.762;2023-07-24T04:42:51;3.58;;;2.80;;
27265;SDS011;14766;51.380;13.762;2023-07-24T04:45:18;2.80;;;2.50;;
27265;SDS011;14766;51.380;13.762;2023-07-24T04:47:49;4.47;;;3.13;;
27265;SDS011;14766;51.380;13.762;2023-07-24T04:50:16;3.25;;;2.83;;
27265;SDS011;14766;51.380;13.762;2023-07-24T04:52:43;4.45;;;2.53;;
27265;SDS011;14766;51.380;13.762;2023-07-24T04:55:10;3.45;;;2.88;;
27265;SDS011;14766;51.380;13.762;2023-07-24T04:57:37;3.35;;;2.70;;
27265;SDS011;14766;51.380;13.762;2023-07-24T05:00:04;2.90;;;2.40;;
27265;SDS011;14766;51.380;13.762;2023-07-24T05:02:34;3.53;;;2.40;;
27265;SDS011;14766;51.380;13.762;2023-07-24T05:05:02;2.83;;;2.53;;
27265;SDS011;14766;51.380;13.762;2023-07-24T05:07:29;4.25;;;2.83;;
27265;SDS011;14766;51.380;13.762;2023-07-24T05:09:56;3.20;;;2.60;;
27265;SDS011;14766;51.380;13.762;2023-07-24T05:12:25;3.60;;;2.65;;
27265;SDS011;14766;51.380;13.762;2023-07-24T05:14:52;3.17;;;2.42;;
27265;SDS011;14766;51.380;13.762;2023-07-24T05:17:19;3.33;;;2.78;;
27265;SDS011;14766;51.380;13.762;2023-07-24T05:19:46;3.78;;;2.58;;
27265;SDS011;14766;51.380;13.762;2023-07-24T05:22:13;3.17;;;2.60;;
27265;SDS011;14766;51.380;13.762;2023-07-24T05:24:40;3.30;;;2.70;;
27265;SDS011;14766;51.380;13.762;2023-07-24T05:27:08;3.45;;;2.67;;
27265;SDS011;14766;51.380;13.762;2023-07-24T05:29:35;4.43;;;2.80;;
27265;SDS011;14766;51.380;13.762;2023-07-24T05:32:03;3.63;;;2.55;;
27265;SDS011;14766;51.380;13.762;2023-07-24T05:34:30;4.47;;;3.10;;
27265;SDS011;14766;51.380;13.762;2023-07-24T05:36:57;4.65;;;2.65;;
27265;SDS011;14766;51.380;13.762;2023-07-24T05:39:24;3.30;;;2.63;;
27265;SDS011;14766;51.380;13.762;2023-07-24T05:41:52;3.63;;;2.60;;
27265;SDS011;14766;51.380;13.762;2023-07-24T05:44:19;3.58;;;2.90;;
27265;SDS011;14766;51.380;13.762;2023-07-24T05:46:46;4.53;;;3.17;;
27265;SDS011;14766;51.380;13.762;2023-07-24T05:49:13;4.55;;;2.80;;
27265;SDS011;14766;51.380;13.762;2023-07-24T05:51:40;3.88;;;2.83;;
27265;SDS011;14766;51.380;13.762;2023-07-24T05:54:07;4.55;;;3.25;;
27265;SDS011;14766;51.380;13.762;2023-07-24T05:56:34;3.75;;;3.25;;
27265;SDS011;14766;51.380;13.762;2023-07-24T05:59:03;3.38;;;2.83;;
27265;SDS011;14766;51.380;13.762;2023-07-24T06:01:30;4.88;;;2.95;;
27265;SDS011;14766;51.380;13.762;2023-07-24T06:03:57;3.75;;;2.85;;
27265;SDS011;14766;51.380;13.762;2023-07-24T06:06:25;4.80;;;3.20;;
27265;SDS011;14766;51.380;13.762;2023-07-24T06:08:52;3.67;;;2.85;;
27265;SDS011;14766;51.380;13.762;2023-07-24T06:11:19;5.30;;;3.47;;
27265;SDS011;14766;51.380;13.762;2023-07-24T06:13:46;4.25;;;3.30;;
27265;SDS011;14766;51.380;13.762;2023-07-24T06:16:13;4.40;;;3.30;;
27265;SDS011;14766;51.380;13.762;2023-07-24T06:18:40;3.85;;;2.92;;
27265;SDS011;14766;51.380;13.762;2023-07-24T06:21:10;5.13;;;3.80;;
27265;SDS011;14766;51.380;13.762;2023-07-24T06:23:37;5.93;;;3.40;;
27265;SDS011;14766;51.380;13.762;2023-07-24T06:26:04;4.97;;;3.47;;
27265;SDS011;14766;51.380;13.762;2023-07-24T06:28:31;3.72;;;3.20;;
27265;SDS011;14766;51.380;13.762;2023-07-24T06:30:59;4.32;;;3.70;;
27265;SDS011;14766;51.380;13.762;2023-07-24T06:33:47;4.78;;;3.55;;
27265;SDS011;14766;51.380;13.762;2023-07-24T06:36:14;4.53;;;3.40;;
27265;SDS011;14766;51.380;13.762;2023-07-24T06:39:00;4.70;;;3.60;;
27265;SDS011;14766;51.380;13.762;2023-07-24T06:41:27;3.80;;;3.20;;
27265;SDS011;14766;51.380;13.762;2023-07-24T06:44:14;4.47;;;3.47;;
27265;SDS011;14766;51.380;13.762;2023-07-24T06:46:41;4.55;;;3.60;;
27265;SDS011;14766;51.380;13.762;2023-07-24T06:49:08;4.70;;;3.28;;
27265;SDS011;14766;51.380;13.762;2023-07-24T06:51:39;4.43;;;3.40;;
27265;SDS011;14766;51.380;13.762;2023-07-24T06:54:06;4.57;;;3.30;;
27265;SDS011;14766;51.380;13.762;2023-07-24T06:56:34;4.70;;;3.75;;
27265;SDS011;14766;51.380;13.762;2023-07-24T06:59:01;5.85;;;4.15;;
27265;SDS011;14766;51.380;13.762;2023-07-24T07:01:28;4.15;;;3.60;;
27265;SDS011;14766;51.380;13.762;2023-07-24T07:03:55;4.57;;;3.60;;
27265;SDS011;14766;51.380;13.762;2023-07-24T07:06:22;4.32;;;3.30;;
27265;SDS011;14766;51.380;13.762;2023-07-24T07:08:52;4.60;;;3.72;;
27265;SDS011;14766;51.380;13.762;2023-07-24T07:11:19;4.65;;;3.78;;
27265;SDS011;14766;51.380;13.762;2023-07-24T07:13:46;5.57;;;3.70;;
27265;SDS011;14766;51.380;13.762;2023-07-24T07:16:13;4.03;;;3.20;;
27265;SDS011;14766;51.380;13.762;2023-07-24T07:18:43;3.92;;;3.38;;
27265;SDS011;14766;51.380;13.762;2023-07-24T07:21:10;4.45;;;3.50;;
27265;SDS011;14766;51.380;13.762;2023-07-24T07:23:37;4.88;;;3.58;;
27265;SDS011;14766;51.380;13.762;2023-07-24T07:26:04;4.32;;;3.47;;
27265;SDS011;14766;51.380;13.762;2023-07-24T07:28:31;7.05;;;3.47;;
27265;SDS011;14766;51.380;13.762;2023-07-24T07:30:58;4.43;;;3.83;;
27265;SDS011;14766;51.380;13.762;2023-07-24T07:33:25;4.20;;;3.33;;
27265;SDS011;14766;51.380;13.762;2023-07-24T07:35:52;4.47;;;3.28;;
27265;SDS011;14766;51.380;13.762;2023-07-24T07:38:19;4.18;;;3.15;;
27265;SDS011;14766;51.380;13.762;2023-07-24T07:40:49;3.95;;;3.10;;
27265;SDS011;14766;51.380;13.762;2023-07-24T07:43:19;4.63;;;3.60;;
27265;SDS011;14766;51.380;13.762;2023-07-24T07:45:46;5.63;;;3.58;;
27265;SDS011;14766;51.380;13.762;2023-07-24T07:48:15;4.78;;;3.40;;
27265;SDS011;14766;51.380;13.762;2023-07-24T07:50:42;4.82;;;3.72;;
27265;SDS011;14766;51.380;13.762;2023-07-24T07:53:09;5.10;;;3.33;;
27265;SDS011;14766;51.380;13.762;2023-07-24T07:55:36;4.55;;;3.53;;
27265;SDS011;14766;51.380;13.762;2023-07-24T07:58:03;3.83;;;3.17;;
27265;SDS011;14766;51.380;13.762;2023-07-24T08:00:30;3.92;;;3.40;;
27265;SDS011;14766;51.380;13.762;2023-07-24T08:02:57;5.25;;;3.50;;
27265;SDS011;14766;51.380;13.762;2023-07-24T08:05:24;4.47;;;3.42;;
27265;SDS011;14766;51.380;13.762;2023-07-24T08:07:54;3.65;;;3.17;;
27265;SDS011;14766;51.380;13.762;2023-07-24T08:10:21;10.88;;;3.95;;
27265;SDS011;14766;51.380;13.762;2023-07-24T08:12:49;4.15;;;3.20;;
27265;SDS011;14766;51.380;13.762;2023-07-24T08:15:16;3.95;;;3.20;;
27265;SDS011;14766;51.380;13.762;2023-07-24T08:17:43;5.03;;;3.63;;
27265;SDS011;14766;51.380;13.762;2023-07-24T08:20:10;4.07;;;3.50;;
27265;SDS011;14766;51.380;13.762;2023-07-24T08:22:37;4.18;;;3.15;;
27265;SDS011;14766;51.380;13.762;2023-07-24T08:25:05;5.15;;;3.88;;
27265;SDS011;14766;51.380;13.762;2023-07-24T08:27:32;5.20;;;3.60;;
27265;SDS011;14766;51.380;13.762;2023-07-24T08:30:11;6.32;;;4.32;;
27265;SDS011;14766;51.380;13.762;2023-07-24T08:32:38;5.53;;;3.90;;
27265;SDS011;14766;51.380;13.762;2023-07-24T08:35:06;4.78;;;3.65;;
27265;SDS011;14766;51.380;13.762;2023-07-24T08:37:33;4.88;;;3.90;;
27265;SDS011;14766;51.380;13.762;2023-07-24T08:40:02;4.97;;;3.58;;
27265;SDS011;14766;51.380;13.762;2023-07-24T08:42:29;6.18;;;4.15;;
27265;SDS011;14766;51.380;13.762;2023-07-24T08:44:58;3.80;;;2.95;;
27265;SDS011;14766;51.380;13.762;2023-07-24T08:47:25;4.03;;;3.30;;
27265;SDS011;14766;51.380;13.762;2023-07-24T08:49:53;5.50;;;3.60;;
27265;SDS011;14766;51.380;13.762;2023-07-24T08:52:21;4.38;;;3.50;;
27265;SDS011;14766;51.380;13.762;2023-07-24T08:55:02;4.88;;;3.40;;
27265;SDS011;14766;51.380;13.762;2023-07-24T08:57:31;4.15;;;3.33;;
27265;SDS011;14766;51.380;13.762;2023-07-24T09:00:00;4.80;;;3.28;;
27265;SDS011;14766;51.380;13.762;2023-07-24T09:02:34;5.15;;;3.72;;
27265;SDS011;14766;51.380;13.762;2023-07-24T09:05:02;5.05;;;3.83;;
27265;SDS011;14766;51.380;13.762;2023-07-24T09:07:30;4.18;;;3.28;;
27265;SDS011;14766;51.380;13.762;2023-07-24T09:09:58;4.28;;;3.30;;
27265;SDS011;14766;51.380;13.762;2023-07-24T09:12:25;5.15;;;3.78;;
27265;SDS011;14766;51.380;13.762;2023-07-24T09:15:02;4.90;;;3.80;;
27265;SDS011;14766;51.380;13.762;2023-07-24T09:17:32;6.28;;;3.80;;
27265;SDS011;14766;51.380;13.762;2023-07-24T09:20:00;4.32;;;3.55;;
27265;SDS011;14766;51.380;13.762;2023-07-24T09:22:30;4.28;;;3.80;;
27265;SDS011;14766;51.380;13.762;2023-07-24T09:24:59;6.32;;;4.13;;
27265;SDS011;14766;51.380;13.762;2023-07-24T09:27:29;7.28;;;3.67;;
27265;SDS011;14766;51.380;13.762;2023-07-24T09:29:58;5.65;;;4.13;;
27265;SDS011;14766;51.380;13.762;2023-07-24T09:32:26;4.50;;;4.00;;
27265;SDS011;14766;51.380;13.762;2023-07-24T09:34:54;6.00;;;4.25;;
27265;SDS011;14766;51.380;13.762;2023-07-24T09:37:30;6.07;;;4.30;;
27265;SDS011;14766;51.380;13.762;2023-07-24T09:39:59;5.90;;;4.20;;
27265;SDS011;14766;51.380;13.762;2023-07-24T09:44:58;5.15;;;4.00;;
27265;SDS011;14766;51.380;13.762;2023-07-24T09:47:27;7.00;;;4.10;;
27265;SDS011;14766;51.380;13.762;2023-07-24T09:50:15;7.20;;;4.45;;
27265;SDS011;14766;51.380;13.762;2023-07-24T09:52:42;10.63;;;5.43;;
27265;SDS011;14766;51.380;13.762;2023-07-24T09:55:12;5.80;;;4.43;;
27265;SDS011;14766;51.380;13.762;2023-07-24T09:57:48;5.18;;;4.60;;
27265;SDS011;14766;51.380;13.762;2023-07-24T10:00:17;5.70;;;4.65;;
27265;SDS011;14766;51.380;13.762;2023-07-24T10:02:44;6.45;;;5.07;;
27265;SDS011;14766;51.380;13.762;2023-07-24T10:05:11;6.57;;;4.90;;
27265;SDS011;14766;51.380;13.762;2023-07-24T10:07:38;5.32;;;4.60;;
27265;SDS011;14766;51.380;13.762;2023-07-24T10:10:07;5.80;;;4.43;;
27265;SDS011;14766;51.380;13.762;2023-07-24T10:12:34;5.85;;;4.43;;
27265;SDS011;14766;51.380;13.762;2023-07-24T10:15:03;5.97;;;4.88;;
27265;SDS011;14766;51.380;13.762;2023-07-24T10:17:38;5.97;;;4.85;;
27265;SDS011;14766;51.380;13.762;2023-07-24T10:20:08;5.15;;;4.32;;
27265;SDS011;14766;51.380;13.762;2023-07-24T10:22:36;6.60;;;4.88;;
27265;SDS011;14766;51.380;13.762;2023-07-24T10:25:09;6.28;;;5.00;;
27265;SDS011;14766;51.380;13.762;2023-07-24T10:27:43;6.10;;;4.85;;
27265;SDS011;14766;51.380;13.762;2023-07-24T10:30:12;5.70;;;4.78;;
27265;SDS011;14766;51.380;13.762;2023-07-24T10:33:07;6.05;;;4.80;;
27265;SDS011;14766;51.380;13.762;2023-07-24T10:35:43;5.78;;;4.78;;
27265;SDS011;14766;51.380;13.762;2023-07-24T10:38:14;7.50;;;5.05;;
27265;SDS011;14766;51.380;13.762;2023-07-24T10:40:45;6.50;;;4.97;;
27265;SDS011;14766;51.380;13.762;2023-07-24T10:43:19;6.55;;;4.97;;
27265;SDS011;14766;51.380;13.762;2023-07-24T10:45:50;6.05;;;4.72;;
27265;SDS011;14766;51.380;13.762;2023-07-24T10:48:24;4.85;;;4.32;;
27265;SDS011;14766;51.380;13.762;2023-07-24T10:50:52;6.95;;;5.43;;
27265;SDS011;14766;51.380;13.762;2023-07-24T10:53:21;6.00;;;4.55;;
27265;SDS011;14766;51.380;13.762;2023-07-24T10:55:50;6.35;;;4.55;;
27265;SDS011;14766;51.380;13.762;2023-07-24T10:58:19;7.32;;;5.28;;
27265;SDS011;14766;51.380;13.762;2023-07-24T11:00:46;6.45;;;5.05;;
27265;SDS011;14766;51.380;13.762;2023-07-24T11:03:14;8.27;;;5.55;;
27265;SDS011;14766;51.380;13.762;2023-07-24T11:05:44;6.03;;;4.93;;
27265;SDS011;14766;51.380;13.762;2023-07-24T11:08:15;6.82;;;4.63;;
27265;SDS011;14766;51.380;13.762;2023-07-24T11:10:46;7.32;;;5.32;;
27265;SDS011;14766;51.380;13.762;2023-07-24T11:13:14;6.15;;;4.88;;
27265;SDS011;14766;51.380;13.762;2023-07-24T11:15:47;6.60;;;5.25;;
27265;SDS011;14766;51.380;13.762;2023-07-24T11:18:15;9.60;;;5.65;;
27265;SDS011;14766;51.380;13.762;2023-07-24T11:23:16;8.63;;;5.40;;
27265;SDS011;14766;51.380;13.762;2023-07-24T11:25:44;7.32;;;4.90;;
27265;SDS011;14766;51.380;13.762;2023-07-24T11:28:13;7.07;;;5.07;;
27265;SDS011;14766;51.380;13.762;2023-07-24T11:30:41;7.55;;;5.32;;
27265;SDS011;14766;51.380;13.762;2023-07-24T11:33:10;7.68;;;5.15;;
27265;SDS011;14766;51.380;13.762;2023-07-24T11:35:43;6.88;;;5.10;;
27265;SDS011;14766;51.380;13.762;2023-07-24T11:38:10;7.28;;;4.63;;
27265;SDS011;14766;51.380;13.762;2023-07-24T11:40:38;7.45;;;4.97;;
27265;SDS011;14766;51.380;13.762;2023-07-24T11:43:19;6.38;;;5.15;;
27265;SDS011;14766;51.380;13.762;2023-07-24T11:45:49;7.65;;;5.32;;
27265;SDS011;14766;51.380;13.762;2023-07-24T11:48:22;5.63;;;4.78;;
27265;SDS011;14766;51.380;13.762;2023-07-24T11:50:51;6.18;;;4.80;;
27265;SDS011;14766;51.380;13.762;2023-07-24T11:53:23;5.47;;;4.32;;
27265;SDS011;14766;51.380;13.762;2023-07-24T11:55:52;6.43;;;4.45;;
27265;SDS011;14766;51.380;13.762;2023-07-24T11:58:21;5.95;;;4.70;;
27265;SDS011;14766;51.380;13.762;2023-07-24T12:00:51;6.97;;;4.43;;
27265;SDS011;14766;51.380;13.762;2023-07-24T12:03:20;7.88;;;5.38;;
27265;SDS011;14766;51.380;13.762;2023-07-24T12:05:50;5.82;;;4.70;;
27265;SDS011;14766;51.380;13.762;2023-07-24T12:08:20;5.18;;;4.20;;
27265;SDS011;14766;51.380;13.762;2023-07-24T12:10:57;6.53;;;4.95;;
27265;SDS011;14766;51.380;13.762;2023-07-24T12:13:24;6.47;;;5.00;;
27265;SDS011;14766;51.380;13.762;2023-07-24T12:15:53;5.20;;;4.55;;
27265;SDS011;14766;51.380;13.762;2023-07-24T12:18:22;9.10;;;5.47;;
27265;SDS011;14766;51.380;13.762;2023-07-24T12:20:49;6.32;;;4.93;;
27265;SDS011;14766;51.380;13.762;2023-07-24T12:23:16;7.95;;;5.82;;
27265;SDS011;14766;51.380;13.762;2023-07-24T12:25:43;7.20;;;4.78;;
27265;SDS011;14766;51.380;13.762;2023-07-24T12:28:10;6.88;;;5.00;;
27265;SDS011;14766;51.380;13.762;2023-07-24T12:30:37;6.43;;;5.15;;
27265;SDS011;14766;51.380;13.762;2023-07-24T12:33:05;6.15;;;5.25;;
27265;SDS011;14766;51.380;13.762;2023-07-24T12:35:33;5.82;;;4.50;;
27265;SDS011;14766;51.380;13.762;2023-07-24T12:38:01;5.53;;;4.47;;
27265;SDS011;14766;51.380;13.762;2023-07-24T12:40:28;4.93;;;4.32;;
27265;SDS011;14766;51.380;13.762;2023-07-24T12:42:56;7.43;;;4.50;;
27265;SDS011;14766;51.380;13.762;2023-07-24T12:45:23;6.20;;;4.38;;
27265;SDS011;14766;51.380;13.762;2023-07-24T12:47:52;8.60;;;4.40;;
27265;SDS011;14766;51.380;13.762;2023-07-24T12:50:19;6.15;;;4.55;;
27265;SDS011;14766;51.380;13.762;2023-07-24T12:52:46;6.55;;;4.90;;
27265;SDS011;14766;51.380;13.762;2023-07-24T12:55:13;5.88;;;4.50;;
27265;SDS011;14766;51.380;13.762;2023-07-24T12:57:40;5.32;;;4.28;;
27265;SDS011;14766;51.380;13.762;2023-07-24T13:00:07;6.50;;;5.00;;
27265;SDS011;14766;51.380;13.762;2023-07-24T13:02:35;6.28;;;4.60;;
27265;SDS011;14766;51.380;13.762;2023-07-24T13:05:03;5.57;;;4.75;;
27265;SDS011;14766;51.380;13.762;2023-07-24T13:07:30;6.03;;;5.05;;
27265;SDS011;14766;51.380;13.762;2023-07-24T13:09:57;7.50;;;5.03;;
27265;SDS011;14766;51.380;13.762;2023-07-24T13:12:24;7.65;;;4.90;;
27265;SDS011;14766;51.380;13.762;2023-07-24T13:14:52;7.88;;;5.53;;
27265;SDS011;14766;51.380;13.762;2023-07-24T13:17:19;8.55;;;5.40;;
27265;SDS011;14766;51.380;13.762;2023-07-24T13:19:47;7.07;;;5.63;;
27265;SDS011;14766;51.380;13.762;2023-07-24T13:22:14;7.85;;;6.28;;
27265;SDS011;14766;51.380;13.762;2023-07-24T13:24:41;8.60;;;5.80;;
27265;SDS011;14766;51.380;13.762;2023-07-24T13:27:08;8.63;;;6.28;;
27265;SDS011;14766;51.380;13.762;2023-07-24T13:29:36;8.48;;;6.32;;
27265;SDS011;14766;51.380;13.762;2023-07-24T13:32:05;9.85;;;6.43;;
27265;SDS011;14766;51.380;13.762;2023-07-24T13:34:33;9.20;;;5.75;;
27265;SDS011;14766;51.380;13.762;2023-07-24T13:37:02;8.23;;;5.85;;
27265;SDS011;14766;51.380;13.762;2023-07-24T13:39:29;8.30;;;5.75;;
27265;SDS011;14766;51.380;13.762;2023-07-24T13:41:58;7.15;;;5.40;;
27265;SDS011;14766;51.380;13.762;2023-07-24T13:44:25;10.05;;;5.07;;
27265;SDS011;14766;51.380;13.762;2023-07-24T13:46:52;8.73;;;5.00;;
27265;SDS011;14766;51.380;13.762;2023-07-24T13:49:22;5.78;;;4.03;;
27265;SDS011;14766;51.380;13.762;2023-07-24T13:51:49;6.18;;;4.30;;
27265;SDS011;14766;51.380;13.762;2023-07-24T13:54:34;6.93;;;3.95;;
27265;SDS011;14766;51.380;13.762;2023-07-24T13:57:01;5.47;;;3.80;;
27265;SDS011;14766;51.380;13.762;2023-07-24T13:59:28;5.32;;;3.60;;
27265;SDS011;14766;51.380;13.762;2023-07-24T14:01:55;6.15;;;3.72;;
27265;SDS011;14766;51.380;13.762;2023-07-24T14:04:24;4.47;;;3.85;;
27265;SDS011;14766;51.380;13.762;2023-07-24T14:06:51;4.68;;;3.50;;
27265;SDS011;14766;51.380;13.762;2023-07-24T14:09:18;4.97;;;3.58;;
27265;SDS011;14766;51.380;13.762;2023-07-24T14:11:45;3.63;;;3.22;;
27265;SDS011;14766;51.380;13.762;2023-07-24T14:14:12;4.65;;;3.67;;
27265;SDS011;14766;51.380;13.762;2023-07-24T14:16:42;5.47;;;3.88;;
27265;SDS011;14766;51.380;13.762;2023-07-24T14:19:09;7.32;;;4.32;;
27265;SDS011;14766;51.380;13.762;2023-07-24T14:21:36;6.75;;;4.00;;
27265;SDS011;14766;51.380;13.762;2023-07-24T14:24:07;5.05;;;4.00;;
27265;SDS011;14766;51.380;13.762;2023-07-24T14:26:34;7.03;;;3.83;;
27265;SDS011;14766;51.380;13.762;2023-07-24T14:29:03;4.45;;;3.90;;
27265;SDS011;14766;51.380;13.762;2023-07-24T14:31:30;5.88;;;4.43;;
27265;SDS011;14766;51.380;13.762;2023-07-24T14:33:57;4.70;;;3.67;;
27265;SDS011;14766;51.380;13.762;2023-07-24T14:36:24;4.30;;;3.50;;
27265;SDS011;14766;51.380;13.762;2023-07-24T14:38:54;6.68;;;4.13;;
27265;SDS011;14766;51.380;13.762;2023-07-24T14:41:21;5.45;;;4.30;;
27265;SDS011;14766;51.380;13.762;2023-07-24T14:43:48;4.50;;;3.75;;
27265;SDS011;14766;51.380;13.762;2023-07-24T14:46:15;4.55;;;3.72;;
27265;SDS011;14766;51.380;13.762;2023-07-24T14:48:42;6.20;;;4.20;;